M4105 EPRZ-EPKK
Flight info
| Callsign | M4105 |
|---|---|
| Flight time | 0h 27m |
| Altitude | 24000 |
| Route | GOVRI |
| Aircraft | A319/M-SDE3FGHIRWY/LB1 |
Departure
| Time | 2026-04-20 19:05 |
|---|---|
| Airport | Rzeszów-Jasionka Airport (EPRZ) |
Arrival
| Time | 2026-04-20 19:32 |
|---|---|
| Airport | Kraków John Paul II International Airport (EPKK) |
| Time | Latitude | Longitude | Altitude | Speed | Heading |
|---|---|---|---|---|---|
| 2026-04-20 18:43 | 50.11425 | 22.02706 | 686 ft | 0 kts | 0° |
| 2026-04-20 18:52 | 50.11424 | 22.02706 | 686 ft | 0 kts | 0° |
| 2026-04-20 18:52 | 50.11418 | 22.02706 | 685 ft | 2 kts | 0° |
| 2026-04-20 18:52 | 50.11404 | 22.02706 | 685 ft | 2 kts | 0° |
| 2026-04-20 18:52 | 50.11390 | 22.02706 | 685 ft | 2 kts | 1° |
| 2026-04-20 18:53 | 50.11375 | 22.02705 | 685 ft | 2 kts | 0° |
| 2026-04-20 18:53 | 50.11360 | 22.02705 | 684 ft | 2 kts | 0° |
| 2026-04-20 18:53 | 50.11351 | 22.02705 | 684 ft | 1 kts | 1° |
| 2026-04-20 18:53 | 50.11337 | 22.02708 | 684 ft | 2 kts | 332° |
| 2026-04-20 18:54 | 50.11326 | 22.02722 | 684 ft | 2 kts | 306° |
| 2026-04-20 18:54 | 50.11320 | 22.02742 | 684 ft | 1 kts | 279° |
| 2026-04-20 18:54 | 50.11319 | 22.02752 | 684 ft | 1 kts | 269° |
| 2026-04-20 18:54 | 50.11319 | 22.02757 | 684 ft | 0 kts | 272° |
| 2026-04-20 18:55 | 50.11319 | 22.02756 | 683 ft | 0 kts | 272° |
| 2026-04-20 18:56 | 50.11320 | 22.02738 | 684 ft | 3 kts | 271° |
| 2026-04-20 18:57 | 50.11321 | 22.02677 | 683 ft | 8 kts | 271° |
| 2026-04-20 18:57 | 50.11323 | 22.02570 | 684 ft | 12 kts | 271° |
| 2026-04-20 18:57 | 50.11325 | 22.02423 | 685 ft | 15 kts | 271° |
| 2026-04-20 18:57 | 50.11280 | 22.02298 | 686 ft | 17 kts | 187° |
| 2026-04-20 18:58 | 50.11162 | 22.02249 | 684 ft | 20 kts | 254° |
| 2026-04-20 18:58 | 50.11158 | 22.02031 | 687 ft | 21 kts | 271° |
| 2026-04-20 18:58 | 50.11160 | 22.01796 | 687 ft | 23 kts | 271° |
| 2026-04-20 18:58 | 50.11164 | 22.01536 | 687 ft | 25 kts | 271° |
| 2026-04-20 18:59 | 50.11166 | 22.01266 | 689 ft | 26 kts | 270° |
| 2026-04-20 18:59 | 50.11170 | 22.01062 | 687 ft | 16 kts | 273° |
| 2026-04-20 18:59 | 50.11173 | 22.00890 | 688 ft | 16 kts | 271° |
| 2026-04-20 18:59 | 50.11175 | 22.00713 | 688 ft | 17 kts | 271° |
| 2026-04-20 19:00 | 50.11177 | 22.00524 | 688 ft | 18 kts | 271° |
| 2026-04-20 19:00 | 50.11180 | 22.00342 | 691 ft | 16 kts | 272° |
| 2026-04-20 19:00 | 50.11156 | 22.00181 | 691 ft | 16 kts | 206° |
| 2026-04-20 19:00 | 50.11122 | 22.00171 | 690 ft | 0 kts | 180° |
| 2026-04-20 19:03 | 50.11105 | 22.00171 | 690 ft | 5 kts | 180° |
| 2026-04-20 19:03 | 50.11051 | 22.00173 | 689 ft | 10 kts | 166° |
| 2026-04-20 19:03 | 50.11017 | 22.00284 | 688 ft | 14 kts | 89° |
| 2026-04-20 19:04 | 50.11017 | 22.00481 | 685 ft | 38 kts | 91° |
| 2026-04-20 19:04 | 50.11005 | 22.01324 | 688 ft | 118 kts | 91° |
| 2026-04-20 19:04 | 50.10985 | 22.02865 | 678 ft | 178 kts | 91° |
| 2026-04-20 19:04 | 50.10954 | 22.04778 | 1195 ft | 191 kts | 92° |
| 2026-04-20 19:05 | 50.10891 | 22.06949 | 1532 ft | 227 kts | 92° |
| 2026-04-20 19:05 | 50.10835 | 22.09467 | 1900 ft | 260 kts | 91° |
| 2026-04-20 19:05 | 50.10889 | 22.12302 | 2392 ft | 286 kts | 77° |
| 2026-04-20 19:05 | 50.11816 | 22.15026 | 2884 ft | 312 kts | 47° |
| 2026-04-20 19:06 | 50.13634 | 22.16777 | 3384 ft | 338 kts | 22° |
| 2026-04-20 19:06 | 50.15853 | 22.17778 | 3877 ft | 341 kts | 18° |
| 2026-04-20 19:06 | 50.17956 | 22.18498 | 4353 ft | 305 kts | 8° |
| 2026-04-20 19:06 | 50.19976 | 22.18168 | 4843 ft | 324 kts | 345° |
| 2026-04-20 19:07 | 50.21893 | 22.16342 | 5340 ft | 353 kts | 318° |
| 2026-04-20 19:07 | 50.23200 | 22.13106 | 5846 ft | 378 kts | 291° |
| 2026-04-20 19:07 | 50.23528 | 22.09136 | 6344 ft | 397 kts | 266° |
| 2026-04-20 19:07 | 50.22807 | 22.05122 | 6878 ft | 393 kts | 246° |
| 2026-04-20 19:08 | 50.21759 | 22.01596 | 7350 ft | 354 kts | 248° |
| 2026-04-20 19:08 | 50.21487 | 21.94944 | 8308 ft | 296 kts | 279° |
| 2026-04-20 19:08 | 50.21785 | 21.91749 | 8822 ft | 320 kts | 280° |
| 2026-04-20 19:09 | 50.22139 | 21.88354 | 9330 ft | 343 kts | 281° |
| 2026-04-20 19:09 | 50.22523 | 21.84722 | 9833 ft | 363 kts | 281° |
| 2026-04-20 19:09 | 50.22919 | 21.80947 | 10328 ft | 380 kts | 281° |
| 2026-04-20 19:09 | 50.23338 | 21.76937 | 10833 ft | 394 kts | 280° |
| 2026-04-20 19:10 | 50.23614 | 21.72803 | 11332 ft | 406 kts | 272° |
| 2026-04-20 19:10 | 50.23443 | 21.68547 | 11831 ft | 414 kts | 263° |
| 2026-04-20 19:10 | 50.22850 | 21.64509 | 12313 ft | 378 kts | 256° |
| 2026-04-20 19:10 | 50.22152 | 21.60895 | 12803 ft | 363 kts | 255° |
| 2026-04-20 19:11 | 50.21433 | 21.57286 | 13302 ft | 362 kts | 255° |
| 2026-04-20 19:11 | 50.20710 | 21.53660 | 13765 ft | 363 kts | 255° |
| 2026-04-20 19:11 | 50.19996 | 21.50060 | 13967 ft | 365 kts | 255° |
| 2026-04-20 19:11 | 50.19272 | 21.46395 | 13976 ft | 365 kts | 255° |
| 2026-04-20 19:12 | 50.18559 | 21.42782 | 13980 ft | 365 kts | 255° |
| 2026-04-20 19:12 | 50.17848 | 21.39175 | 13980 ft | 364 kts | 255° |
| 2026-04-20 19:12 | 50.17123 | 21.35494 | 13983 ft | 364 kts | 255° |
| 2026-04-20 19:12 | 50.16429 | 21.31971 | 13983 ft | 364 kts | 255° |
| 2026-04-20 19:13 | 50.15712 | 21.28336 | 13983 ft | 365 kts | 255° |
| 2026-04-20 19:13 | 50.14994 | 21.24707 | 13984 ft | 364 kts | 255° |
| 2026-04-20 19:13 | 50.14283 | 21.21123 | 13984 ft | 364 kts | 255° |
| 2026-04-20 19:13 | 50.13560 | 21.17489 | 13984 ft | 364 kts | 255° |
| 2026-04-20 19:14 | 50.12839 | 21.13884 | 13985 ft | 364 kts | 255° |
| 2026-04-20 19:14 | 50.12116 | 21.10270 | 13984 ft | 364 kts | 255° |
| 2026-04-20 19:14 | 50.11431 | 21.06637 | 13978 ft | 363 kts | 260° |
| 2026-04-20 19:14 | 50.11278 | 21.02893 | 13975 ft | 359 kts | 277° |
| 2026-04-20 19:15 | 50.11817 | 20.99252 | 13977 ft | 355 kts | 293° |
| 2026-04-20 19:15 | 50.12754 | 20.95887 | 13984 ft | 355 kts | 296° |
| 2026-04-20 19:15 | 50.13757 | 20.92514 | 13987 ft | 355 kts | 297° |
| 2026-04-20 19:15 | 50.14758 | 20.89159 | 13985 ft | 355 kts | 297° |
| 2026-04-20 19:16 | 50.15745 | 20.85830 | 13986 ft | 355 kts | 297° |
| 2026-04-20 19:16 | 50.16740 | 20.82445 | 13983 ft | 355 kts | 296° |
| 2026-04-20 19:16 | 50.17722 | 20.79089 | 13986 ft | 355 kts | 297° |
| 2026-04-20 19:16 | 50.18713 | 20.75687 | 13985 ft | 355 kts | 296° |
| 2026-04-20 19:17 | 50.19694 | 20.72307 | 13986 ft | 356 kts | 296° |
| 2026-04-20 19:17 | 50.20667 | 20.68950 | 13984 ft | 356 kts | 296° |
| 2026-04-20 19:17 | 50.21646 | 20.65570 | 13985 ft | 356 kts | 296° |
| 2026-04-20 19:17 | 50.22631 | 20.62157 | 13986 ft | 356 kts | 296° |
| 2026-04-20 19:18 | 50.23600 | 20.58794 | 13986 ft | 356 kts | 296° |
| 2026-04-20 19:18 | 50.24577 | 20.55399 | 13906 ft | 357 kts | 296° |
| 2026-04-20 19:18 | 50.25542 | 20.52021 | 13657 ft | 355 kts | 295° |
| 2026-04-20 19:18 | 50.26173 | 20.48448 | 13406 ft | 357 kts | 280° |
| 2026-04-20 19:19 | 50.26194 | 20.44698 | 13153 ft | 359 kts | 265° |
| 2026-04-20 19:19 | 50.25752 | 20.41045 | 12913 ft | 359 kts | 260° |
| 2026-04-20 19:19 | 50.25222 | 20.37383 | 12665 ft | 358 kts | 259° |
| 2026-04-20 19:19 | 50.24690 | 20.33746 | 12231 ft | 357 kts | 259° |
| 2026-04-20 19:20 | 50.24170 | 20.30125 | 11734 ft | 353 kts | 259° |
| 2026-04-20 19:20 | 50.23663 | 20.26555 | 11239 ft | 350 kts | 259° |
| 2026-04-20 19:20 | 50.23161 | 20.23003 | 10739 ft | 347 kts | 259° |
| 2026-04-20 19:20 | 50.22667 | 20.19510 | 10121 ft | 347 kts | 259° |
| 2026-04-20 19:21 | 50.22162 | 20.15942 | 9126 ft | 358 kts | 259° |
| 2026-04-20 19:21 | 50.21643 | 20.12295 | 8138 ft | 366 kts | 259° |
| 2026-04-20 19:21 | 50.21107 | 20.08547 | 7273 ft | 369 kts | 259° |
| 2026-04-20 19:21 | 50.20576 | 20.04854 | 6590 ft | 366 kts | 260° |
| 2026-04-20 19:22 | 50.20055 | 20.01181 | 6140 ft | 355 kts | 260° |
| 2026-04-20 19:22 | 50.19554 | 19.97625 | 5989 ft | 337 kts | 260° |
| 2026-04-20 19:22 | 50.19085 | 19.94306 | 5981 ft | 317 kts | 260° |
| 2026-04-20 19:22 | 50.18648 | 19.91205 | 5981 ft | 298 kts | 261° |
| 2026-04-20 19:23 | 50.18228 | 19.88234 | 5975 ft | 281 kts | 261° |
| 2026-04-20 19:23 | 50.17834 | 19.85460 | 5963 ft | 265 kts | 261° |
| 2026-04-20 19:23 | 50.17462 | 19.82842 | 5966 ft | 249 kts | 261° |
| 2026-04-20 19:23 | 50.17115 | 19.80408 | 5959 ft | 235 kts | 262° |
| 2026-04-20 19:24 | 50.16783 | 19.78072 | 5959 ft | 221 kts | 262° |
| 2026-04-20 19:24 | 50.16481 | 19.75916 | 5961 ft | 207 kts | 262° |
| 2026-04-20 19:24 | 50.16193 | 19.73859 | 5956 ft | 193 kts | 263° |
| 2026-04-20 19:24 | 50.15930 | 19.71991 | 5949 ft | 178 kts | 263° |
| 2026-04-20 19:25 | 50.15689 | 19.70172 | 5687 ft | 193 kts | 265° |
| 2026-04-20 19:25 | 50.15404 | 19.67917 | 5754 ft | 245 kts | 261° |
| 2026-04-20 19:25 | 50.15007 | 19.65165 | 5893 ft | 291 kts | 260° |
| 2026-04-20 19:25 | 50.14554 | 19.62121 | 5929 ft | 314 kts | 259° |
| 2026-04-20 19:26 | 50.14065 | 19.58823 | 5690 ft | 332 kts | 259° |
| 2026-04-20 19:26 | 50.13558 | 19.55357 | 5447 ft | 346 kts | 259° |
| 2026-04-20 19:26 | 50.13041 | 19.51795 | 5201 ft | 359 kts | 259° |
| 2026-04-20 19:26 | 50.12507 | 19.48090 | 5003 ft | 368 kts | 259° |
| 2026-04-20 19:27 | 50.11969 | 19.44335 | 4975 ft | 371 kts | 259° |
| 2026-04-20 19:27 | 50.11436 | 19.40590 | 4973 ft | 373 kts | 258° |
| 2026-04-20 19:27 | 50.10213 | 19.37421 | 5711 ft | 353 kts | 214° |
| 2026-04-20 19:27 | 50.08106 | 19.36595 | 6640 ft | 328 kts | 182° |
| 2026-04-20 19:28 | 50.05860 | 19.37252 | 5233 ft | 379 kts | 156° |
| 2026-04-20 19:28 | 50.04013 | 19.39892 | 4608 ft | 370 kts | 124° |
| 2026-04-20 19:28 | 50.02753 | 19.43038 | 4449 ft | 347 kts | 112° |
| 2026-04-20 19:28 | 50.02320 | 19.46473 | 3878 ft | 333 kts | 78° |
| 2026-04-20 19:29 | 50.03204 | 19.49288 | 4926 ft | 271 kts | 59° |
| 2026-04-20 19:29 | 50.03788 | 19.51297 | 6451 ft | 188 kts | 71° |
| 2026-04-20 19:29 | 50.03987 | 19.53094 | 6543 ft | 174 kts | 86° |
| 2026-04-20 19:29 | 50.04013 | 19.54972 | 6192 ft | 198 kts | 74° |
| 2026-04-20 19:30 | 50.04465 | 19.57134 | 5803 ft | 233 kts | 66° |
| 2026-04-20 19:30 | 50.05068 | 19.59385 | 5054 ft | 239 kts | 68° |
| 2026-04-20 19:30 | 50.05486 | 19.61725 | 4491 ft | 238 kts | 74° |
| 2026-04-20 19:30 | 50.05861 | 19.64204 | 3587 ft | 248 kts | 77° |
| 2026-04-20 19:31 | 50.06165 | 19.66710 | 2901 ft | 248 kts | 77° |
| 2026-04-20 19:31 | 50.06512 | 19.69169 | 2400 ft | 241 kts | 76° |
| 2026-04-20 19:31 | 50.06844 | 19.71605 | 1902 ft | 235 kts | 77° |
| 2026-04-20 19:31 | 50.07169 | 19.73904 | 1428 ft | 226 kts | 78° |
| 2026-04-20 19:32 | 50.07461 | 19.76173 | 983 ft | 220 kts | 78° |
| 2026-04-20 19:32 | 50.07761 | 19.78356 | 797 ft | 198 kts | 77° |
| 2026-04-20 19:32 | 50.07957 | 19.79849 | 798 ft | 69 kts | 80° |
| 2026-04-20 19:32 | 50.07980 | 19.79996 | 798 ft | 0 kts | 76° |
| 2026-04-20 19:33 | 50.07990 | 19.80074 | 798 ft | 17 kts | 81° |
| 2026-04-20 19:33 | 50.07986 | 19.80253 | 798 ft | 17 kts | 119° |
| 2026-04-20 19:33 | 50.07886 | 19.80324 | 798 ft | 4 kts | 169° |
| 2026-04-20 19:33 | 50.07885 | 19.80324 | 798 ft | 0 kts | 169° |
| 2026-04-20 19:34 | 50.07869 | 19.80329 | 798 ft | 7 kts | 169° |
| 2026-04-20 19:34 | 50.07805 | 19.80350 | 798 ft | 12 kts | 167° |
| 2026-04-20 19:35 | 50.07712 | 19.80379 | 798 ft | 16 kts | 169° |
| 2026-04-20 19:35 | 50.07594 | 19.80418 | 798 ft | 19 kts | 173° |
| 2026-04-20 19:35 | 50.07469 | 19.80370 | 798 ft | 19 kts | 212° |
| 2026-04-20 19:35 | 50.07424 | 19.80212 | 798 ft | 11 kts | 245° |
| 2026-04-20 19:36 | 50.07348 | 19.80203 | 798 ft | 13 kts | 166° |
| 2026-04-20 19:36 | 50.07342 | 19.80205 | 798 ft | 0 kts | 165° |
| 2026-04-20 19:36 | 50.07338 | 19.80207 | 798 ft | 1 kts | 172° |
| 2026-04-20 19:36 | 50.07330 | 19.80209 | 798 ft | 0 kts | 167° |